createdAt,value
2022-07-25T00:00:05.146Z,48.97
2022-07-25T00:02:35.490Z,49.02
2022-07-25T00:05:05.708Z,49.39
2022-07-25T00:07:34.003Z,49.45
2022-07-25T00:10:02.474Z,49.66
2022-07-25T00:12:30.810Z,49.52
2022-07-25T00:14:59.062Z,49.64
2022-07-25T00:17:27.569Z,50.09
2022-07-25T00:19:57.262Z,49.73
2022-07-25T00:22:25.577Z,50.31
2022-07-25T00:24:53.925Z,50.30
2022-07-25T00:27:22.284Z,50.52
2022-07-25T00:29:50.633Z,50.93
2022-07-25T00:32:19.010Z,50.95
2022-07-25T00:34:47.372Z,50.95
2022-07-25T00:37:17.026Z,51.18
2022-07-25T00:39:45.461Z,51.41
2022-07-25T00:42:13.783Z,51.49
2022-07-25T00:44:42.071Z,51.70
2022-07-25T00:47:10.390Z,51.54
2022-07-25T00:49:38.718Z,51.75
2022-07-25T00:52:07.732Z,51.89
2022-07-25T00:54:37.568Z,52.11
2022-07-25T00:57:06.095Z,52.10
2022-07-25T00:59:34.553Z,52.47
2022-07-25T01:02:04.086Z,52.74
2022-07-25T01:04:32.844Z,52.88
2022-07-25T01:07:02.033Z,53.27
2022-07-25T01:09:30.590Z,53.61
2022-07-25T01:12:00.430Z,54.00
2022-07-25T01:14:28.698Z,53.96
2022-07-25T01:16:56.995Z,54.03
2022-07-25T01:19:25.386Z,54.27
2022-07-25T01:21:56.230Z,54.51
2022-07-25T01:24:24.663Z,54.54
2022-07-25T01:26:53.067Z,54.90
2022-07-25T01:29:21.416Z,54.91
2022-07-25T01:31:49.823Z,55.12
2022-07-25T01:34:18.149Z,55.24
2022-07-25T01:36:46.588Z,55.49
2022-07-25T01:39:16.323Z,55.35
2022-07-25T01:41:44.675Z,55.49
2022-07-25T01:44:13.157Z,55.75
2022-07-25T01:46:41.790Z,56.01
2022-07-25T01:49:10.640Z,56.20
2022-07-25T01:51:38.942Z,56.32
2022-07-25T01:54:10.401Z,56.49
2022-07-25T01:56:45.951Z,56.21
2022-07-25T01:59:15.864Z,56.57
2022-07-25T02:01:44.240Z,56.78
2022-07-25T02:04:12.709Z,57.00
2022-07-25T02:06:41.781Z,57.28
2022-07-25T02:09:10.613Z,57.30
2022-07-25T02:11:40.252Z,57.82
2022-07-25T02:14:09.242Z,57.85
2022-07-25T02:16:38.066Z,58.17
2022-07-25T02:19:06.816Z,58.33
2022-07-25T02:21:35.173Z,58.47
2022-07-25T02:24:04.415Z,58.64
2022-07-25T02:26:33.012Z,58.69
2022-07-25T02:29:02.720Z,58.98
2022-07-25T02:31:30.974Z,59.14
2022-07-25T02:33:59.389Z,59.31
2022-07-25T02:36:27.696Z,59.63
2022-07-25T02:38:56.014Z,59.47
2022-07-25T02:41:24.364Z,60.00
2022-07-25T02:43:52.757Z,60.19
2022-07-25T02:46:22.760Z,60.29
2022-07-25T02:48:51.319Z,60.24
2022-07-25T02:51:19.640Z,60.54
2022-07-25T02:53:57.300Z,60.60
2022-07-25T02:56:30.295Z,60.60
2022-07-25T02:59:00.455Z,60.97
2022-07-25T03:01:30.648Z,60.87
2022-07-25T03:03:59.251Z,60.77
2022-07-25T03:06:27.628Z,60.99
2022-07-25T03:08:56.044Z,60.83
2022-07-25T03:11:24.373Z,61.12
2022-07-25T03:13:52.762Z,61.10
2022-07-25T03:16:21.300Z,61.14
2022-07-25T03:18:51.245Z,61.34
2022-07-25T03:21:19.621Z,61.43
2022-07-25T03:23:52.488Z,61.81
2022-07-25T03:26:21.812Z,61.77
2022-07-25T03:28:50.107Z,62.02
2022-07-25T03:31:18.601Z,62.20
2022-07-25T03:33:47.067Z,62.24
2022-07-25T03:36:16.833Z,62.11
2022-07-25T03:38:45.228Z,62.38
2022-07-25T03:41:13.974Z,62.59
2022-07-25T03:43:42.287Z,63.13
2022-07-25T03:46:10.678Z,63.15
2022-07-25T03:48:39.183Z,63.70
2022-07-25T03:51:08.502Z,63.33
2022-07-25T03:53:52.533Z,63.47
2022-07-25T03:56:21.346Z,63.63
2022-07-25T03:58:49.629Z,63.61
2022-07-25T04:01:18.063Z,63.76
2022-07-25T04:03:47.733Z,63.79
2022-07-25T04:06:16.049Z,63.82
2022-07-25T04:08:45.737Z,63.61
2022-07-25T04:11:14.042Z,63.63
2022-07-25T04:13:42.727Z,63.41
2022-07-25T04:16:16.325Z,63.50
2022-07-25T04:18:50.765Z,63.56
2022-07-25T04:21:20.589Z,63.64
2022-07-25T04:23:50.714Z,63.53
2022-07-25T04:26:19.407Z,63.67
2022-07-25T04:28:47.865Z,63.66
2022-07-25T04:31:16.565Z,63.89
2022-07-25T04:33:45.261Z,63.98
2022-07-25T04:36:13.957Z,64.14
2022-07-25T04:38:42.289Z,64.22
2022-07-25T04:41:12.988Z,64.43
2022-07-25T04:43:46.355Z,64.24
2022-07-25T04:46:20.267Z,64.30
2022-07-25T04:48:49.639Z,64.45
2022-07-25T04:51:18.618Z,64.40
2022-07-25T04:53:47.325Z,64.42
2022-07-25T04:56:17.122Z,64.33
2022-07-25T04:58:45.502Z,64.25
2022-07-25T05:01:13.924Z,64.30
2022-07-25T05:03:50.387Z,64.17
2022-07-25T05:06:19.784Z,64.01
2022-07-25T05:08:49.058Z,64.07
2022-07-25T05:11:18.766Z,63.85
2022-07-25T05:13:47.199Z,63.77
2022-07-25T05:16:15.671Z,63.74
2022-07-25T05:18:44.031Z,63.94
2022-07-25T05:21:14.119Z,63.79
2022-07-25T05:23:42.575Z,63.86
2022-07-25T05:26:10.928Z,63.73
2022-07-25T05:28:40.798Z,63.75
2022-07-25T05:31:09.193Z,63.81
2022-07-25T05:33:37.498Z,63.75
2022-07-25T05:36:06.635Z,63.56
2022-07-25T05:38:34.997Z,63.52
2022-07-25T05:41:03.539Z,63.30
2022-07-25T05:43:31.916Z,63.43
2022-07-25T05:46:04.052Z,62.80
2022-07-25T05:48:33.191Z,62.67
2022-07-25T05:51:01.535Z,62.36
2022-07-25T05:53:30.064Z,62.05
2022-07-25T05:55:58.638Z,61.54
2022-07-25T05:58:29.950Z,61.63
2022-07-25T06:00:59.347Z,61.35
2022-07-25T06:03:29.082Z,61.12
2022-07-25T06:05:57.813Z,60.87
2022-07-25T06:08:28.595Z,60.68
2022-07-25T06:10:58.627Z,60.23
2022-07-25T06:13:28.120Z,60.04
2022-07-25T06:15:56.789Z,60.17
2022-07-25T06:18:25.655Z,59.83
2022-07-25T06:20:55.416Z,59.87
2022-07-25T06:23:24.006Z,59.99
2022-07-25T06:25:56.177Z,59.75
2022-07-25T06:28:24.527Z,59.54
2022-07-25T06:30:52.943Z,59.33
2022-07-25T06:33:21.281Z,59.34
2022-07-25T06:35:49.795Z,59.23
2022-07-25T06:38:19.482Z,59.21
2022-07-25T06:40:47.888Z,59.00
2022-07-25T06:43:16.211Z,58.82
2022-07-25T06:45:47.422Z,58.56
2022-07-25T06:48:16.101Z,58.65
2022-07-25T06:50:44.508Z,58.58
2022-07-25T06:53:12.993Z,58.45
2022-07-25T06:55:42.785Z,57.89
2022-07-25T06:58:11.154Z,58.00
2022-07-25T07:00:39.834Z,57.87
2022-07-25T07:03:08.350Z,57.42
2022-07-25T07:05:37.513Z,57.48
2022-07-25T07:08:07.037Z,57.18
2022-07-25T07:10:35.433Z,57.41
2022-07-25T07:13:07.899Z,56.85
2022-07-25T07:15:37.797Z,56.78
2022-07-25T07:18:06.839Z,56.96
2022-07-25T07:20:35.592Z,56.73
2022-07-25T07:23:04.069Z,56.27
2022-07-25T07:25:34.623Z,56.00
2022-07-25T07:28:03.065Z,55.95
2022-07-25T07:31:05.819Z,55.43
2022-07-25T07:33:21.708Z,54.83
2022-07-25T07:35:50.021Z,54.50
2022-07-25T07:38:18.552Z,53.85
2022-07-25T07:40:46.921Z,52.04
2022-07-25T07:43:15.413Z,49.21
2022-07-25T07:45:45.901Z,46.67
2022-07-25T07:48:14.393Z,44.39
2022-07-25T07:50:42.730Z,42.53
2022-07-25T07:53:11.112Z,41.47
2022-07-25T07:55:44.232Z,40.38
2022-07-25T07:58:15.565Z,39.34
2022-07-25T08:00:47.126Z,38.57
2022-07-25T08:03:20.515Z,38.20
2022-07-25T08:05:51.695Z,36.81
2022-07-25T08:08:20.471Z,36.51
2022-07-25T08:10:51.196Z,36.27
2022-07-25T08:13:24.271Z,35.89
2022-07-25T08:15:58.039Z,35.64
2022-07-25T08:18:27.490Z,35.40
2022-07-25T08:20:55.778Z,35.51
2022-07-25T08:23:25.336Z,35.68
2022-07-25T08:25:53.764Z,36.05
2022-07-25T08:28:22.606Z,37.17
2022-07-25T08:30:50.961Z,38.45
2022-07-25T08:33:20.801Z,39.42
2022-07-25T08:35:51.920Z,39.57
2022-07-25T08:38:21.705Z,40.05
2022-07-25T08:40:50.644Z,39.66
2022-07-25T08:43:20.289Z,39.13
2022-07-25T08:45:50.436Z,38.64
2022-07-25T08:48:22.311Z,38.18
2022-07-25T08:50:51.744Z,37.54
2022-07-25T08:53:37.413Z,36.38
2022-07-25T08:56:15.950Z,35.25
2022-07-25T08:58:45.932Z,34.46
2022-07-25T09:01:15.169Z,34.28
2022-07-25T09:03:45.297Z,33.55
2022-07-25T09:06:19.716Z,33.69
2022-07-25T09:08:58.271Z,33.66
2022-07-25T09:11:32.752Z,33.61
2022-07-25T09:14:05.273Z,33.59
2022-07-25T09:16:35.797Z,33.54
2022-07-25T09:19:14.760Z,33.94
2022-07-25T09:21:45.983Z,33.27
2022-07-25T09:24:17.851Z,33.28
2022-07-25T09:26:51.066Z,33.16
2022-07-25T09:29:24.794Z,32.78
2022-07-25T09:31:55.635Z,33.15
2022-07-25T09:34:40.264Z,32.71
2022-07-25T09:37:10.360Z,31.90
2022-07-25T09:39:45.798Z,31.68
2022-07-25T09:42:24.559Z,31.44
2022-07-25T09:45:06.375Z,31.53
2022-07-25T09:47:38.532Z,31.21
2022-07-25T09:50:10.003Z,30.66
2022-07-25T09:52:39.367Z,30.37
2022-07-25T09:55:10.929Z,30.08
2022-07-25T09:57:39.417Z,31.18
2022-07-25T10:00:10.190Z,31.66
2022-07-25T10:02:49.639Z,30.95
2022-07-25T10:05:31.228Z,30.18
2022-07-25T10:08:01.346Z,30.00
2022-07-25T10:10:33.589Z,30.34
2022-07-25T10:13:09.913Z,30.09
2022-07-25T10:15:49.021Z,30.02
2022-07-25T10:18:20.417Z,28.91
2022-07-25T10:20:53.955Z,28.73
2022-07-25T10:23:25.832Z,28.65
2022-07-25T10:26:08.940Z,28.95
2022-07-25T10:28:44.056Z,28.64
2022-07-25T10:31:22.778Z,28.25
2022-07-25T10:33:55.112Z,27.67
2022-07-25T10:36:28.753Z,27.36
2022-07-25T10:39:01.098Z,27.58
2022-07-25T10:41:30.134Z,27.83
2022-07-25T10:44:03.299Z,27.48
2022-07-25T10:46:35.887Z,27.81
2022-07-25T10:49:07.791Z,27.96
2022-07-25T10:51:41.976Z,27.79
2022-07-25T10:54:16.437Z,27.59
2022-07-25T10:56:55.855Z,27.61
2022-07-25T10:59:30.153Z,27.84
2022-07-25T11:01:58.700Z,27.86
2022-07-25T11:04:27.985Z,27.85
2022-07-25T11:06:58.128Z,27.74
2022-07-25T11:09:28.530Z,27.68
2022-07-25T11:11:59.246Z,27.79
2022-07-25T11:14:32.771Z,27.79
2022-07-25T11:17:15.183Z,28.42
2022-07-25T11:19:44.774Z,28.27
2022-07-25T11:22:17.115Z,28.86
2022-07-25T11:24:47.827Z,29.12
2022-07-25T11:27:26.704Z,29.00
2022-07-25T11:29:55.579Z,28.69
2022-07-25T11:32:23.915Z,27.85
2022-07-25T11:34:55.228Z,27.88
2022-07-25T11:37:25.170Z,28.15
2022-07-25T11:39:53.762Z,28.54
2022-07-25T11:42:22.920Z,28.27
2022-07-25T11:44:53.119Z,27.91
2022-07-25T11:47:29.065Z,27.21
2022-07-25T11:50:00.208Z,26.81
2022-07-25T11:52:32.806Z,26.85
2022-07-25T11:55:03.704Z,27.11
2022-07-25T11:57:35.680Z,27.91
2022-07-25T12:00:12.578Z,28.40
2022-07-25T12:02:41.014Z,31.54
2022-07-25T12:05:12.376Z,32.15
2022-07-25T12:07:45.645Z,31.35
2022-07-25T12:10:17.552Z,31.16
2022-07-25T12:12:49.715Z,29.85
2022-07-25T12:15:26.559Z,29.18
2022-07-25T12:17:57.002Z,29.05
2022-07-25T12:20:27.967Z,27.85
2022-07-25T12:23:06.427Z,27.12
2022-07-25T12:25:37.257Z,26.56
2022-07-25T12:28:07.213Z,26.58
2022-07-25T12:30:36.229Z,26.51
2022-07-25T12:33:07.393Z,26.89
2022-07-25T12:35:37.284Z,26.59
2022-07-25T12:38:07.439Z,26.73
2022-07-25T12:40:36.288Z,27.29
2022-07-25T12:43:06.121Z,27.40
2022-07-25T12:45:35.019Z,27.19
2022-07-25T12:48:04.019Z,27.25
2022-07-25T12:50:32.659Z,27.52
2022-07-25T12:53:01.075Z,27.82
2022-07-25T12:55:32.278Z,27.53
2022-07-25T12:58:01.255Z,27.67
2022-07-25T13:00:29.680Z,28.06
2022-07-25T13:02:58.137Z,28.65
2022-07-25T13:05:26.856Z,28.70
2022-07-25T13:07:55.250Z,28.69
2022-07-25T13:10:23.679Z,28.74
2022-07-25T13:12:53.725Z,28.90
2022-07-25T13:15:23.372Z,29.11
2022-07-25T13:17:51.848Z,29.30
2022-07-25T13:20:20.293Z,29.46
2022-07-25T13:22:48.692Z,29.49
2022-07-25T13:25:17.485Z,29.75
2022-07-25T13:27:46.102Z,29.77
2022-07-25T13:30:16.401Z,30.18
2022-07-25T13:32:44.794Z,30.22
2022-07-25T13:35:15.415Z,30.20
2022-07-25T13:37:47.373Z,30.26
2022-07-25T13:40:15.831Z,30.27
2022-07-25T13:42:44.349Z,29.99
2022-07-25T13:45:13.376Z,30.17
2022-07-25T13:47:43.317Z,30.09
2022-07-25T13:50:11.973Z,30.19
2022-07-25T13:52:40.260Z,30.31
2022-07-25T13:55:10.531Z,30.24
2022-07-25T13:57:38.901Z,30.24
2022-07-25T14:00:09.255Z,30.22
2022-07-25T14:02:37.739Z,29.95
2022-07-25T14:05:08.441Z,30.02
2022-07-25T14:07:37.176Z,29.81
2022-07-25T14:10:08.482Z,29.46
2022-07-25T14:12:39.514Z,29.21
2022-07-25T14:15:09.290Z,29.11
2022-07-25T14:17:38.781Z,28.98
2022-07-25T14:20:11.906Z,29.16
2022-07-25T14:22:42.046Z,29.09
2022-07-25T14:25:11.877Z,29.20
2022-07-25T14:27:40.774Z,29.22
2022-07-25T14:30:11.337Z,29.05
2022-07-25T14:32:40.085Z,28.18
2022-07-25T14:35:11.433Z,27.36
2022-07-25T14:37:39.942Z,26.34
2022-07-25T14:40:10.985Z,26.36
2022-07-25T14:42:40.229Z,26.06
2022-07-25T14:45:10.141Z,26.39
2022-07-25T14:47:39.954Z,27.27
2022-07-25T14:50:11.086Z,27.31
2022-07-25T14:52:40.452Z,27.12
2022-07-25T14:55:10.677Z,26.25
2022-07-25T14:57:40.465Z,26.25
2022-07-25T15:00:11.759Z,26.61
2022-07-25T15:02:40.436Z,26.58
2022-07-25T15:05:11.203Z,26.72
2022-07-25T15:07:39.970Z,26.17
2022-07-25T15:10:09.091Z,27.09
2022-07-25T15:12:37.535Z,26.87
2022-07-25T15:15:07.971Z,27.83
2022-07-25T15:17:36.322Z,28.00
2022-07-25T15:20:05.290Z,28.29
2022-07-25T15:22:35.146Z,28.10
2022-07-25T15:27:53.924Z,27.75
2022-07-25T15:30:27.317Z,28.30
2022-07-25T15:32:57.488Z,29.21
2022-07-25T15:35:25.886Z,29.17
2022-07-25T15:37:55.553Z,29.16
2022-07-25T15:40:24.126Z,29.92
2022-07-25T15:42:52.599Z,29.79
2022-07-25T15:45:37.489Z,30.05
2022-07-25T15:48:09.148Z,30.26
2022-07-25T15:50:39.309Z,29.17
2022-07-25T15:53:09.489Z,28.58
2022-07-25T15:55:40.052Z,27.77
2022-07-25T15:58:10.352Z,27.24
2022-07-25T16:00:39.962Z,27.07
2022-07-25T16:03:09.502Z,27.46
2022-07-25T16:05:39.592Z,28.01
2022-07-25T16:08:09.849Z,28.04
2022-07-25T16:10:38.977Z,28.72
2022-07-25T16:13:07.597Z,28.85
2022-07-25T16:15:35.993Z,29.29
2022-07-25T16:18:04.452Z,29.83
2022-07-25T16:20:33.963Z,30.02
2022-07-25T16:23:03.051Z,30.58
2022-07-25T16:25:32.729Z,31.30
2022-07-25T16:28:01.439Z,31.66
2022-07-25T16:30:30.197Z,32.04
2022-07-25T16:32:58.521Z,31.85
2022-07-25T16:35:26.924Z,32.33
2022-07-25T16:37:55.250Z,32.31
2022-07-25T16:40:27.378Z,32.10
2022-07-25T16:43:00.847Z,32.16
2022-07-25T16:45:29.517Z,32.12
2022-07-25T16:47:58.039Z,32.12
2022-07-25T16:50:26.357Z,31.84
2022-07-25T16:52:54.835Z,32.03
2022-07-25T16:55:23.594Z,32.01
2022-07-25T16:57:51.912Z,32.01
2022-07-25T17:00:21.646Z,31.54
2022-07-25T17:02:50.136Z,30.74
2022-07-25T17:05:18.913Z,30.62
2022-07-25T17:07:48.734Z,30.66
2022-07-25T17:10:17.088Z,30.57
2022-07-25T17:12:45.416Z,30.88
2022-07-25T17:15:13.928Z,31.13
2022-07-25T17:17:43.593Z,30.72
2022-07-25T17:20:13.002Z,30.82
2022-07-25T17:22:41.426Z,30.96
2022-07-25T17:25:10.733Z,31.20
2022-07-25T17:27:39.220Z,30.94
2022-07-25T17:30:09.117Z,31.03
2022-07-25T17:32:37.429Z,31.33
2022-07-25T17:35:07.950Z,31.41
2022-07-25T17:37:36.556Z,31.60
2022-07-25T17:40:05.890Z,31.65
2022-07-25T17:42:34.236Z,31.69
2022-07-25T17:45:05.742Z,31.86
2022-07-25T17:47:34.691Z,32.01
2022-07-25T17:50:03.588Z,32.45
2022-07-25T17:52:33.444Z,32.69
2022-07-25T17:55:02.056Z,32.90
2022-07-25T17:57:30.449Z,32.92
2022-07-25T17:59:58.867Z,32.97
2022-07-25T18:02:27.284Z,32.93
2022-07-25T18:04:55.620Z,33.21
2022-07-25T18:07:24.070Z,32.93
2022-07-25T18:09:53.892Z,33.15
2022-07-25T18:12:27.433Z,33.42
2022-07-25T18:14:57.870Z,33.39
2022-07-25T18:17:26.309Z,33.40
2022-07-25T18:19:54.880Z,33.97
2022-07-25T18:22:23.471Z,34.34
2022-07-25T18:24:53.304Z,34.63
2022-07-25T18:27:21.672Z,34.71
2022-07-25T18:29:50.007Z,35.08
2022-07-25T18:32:18.397Z,35.30
2022-07-25T18:34:46.720Z,35.36
2022-07-25T18:37:15.083Z,35.70
2022-07-25T18:39:44.006Z,36.01
2022-07-25T18:42:13.728Z,35.99
2022-07-25T18:44:41.980Z,36.40
2022-07-25T18:47:10.348Z,36.37
2022-07-25T18:49:38.629Z,36.31
2022-07-25T18:52:07.374Z,36.64
2022-07-25T18:54:35.668Z,36.80
2022-07-25T18:57:06.017Z,36.85
2022-07-25T18:59:36.556Z,37.12
2022-07-25T19:02:05.341Z,37.21
2022-07-25T19:04:34.032Z,37.35
2022-07-25T19:07:02.520Z,37.42
2022-07-25T19:09:30.858Z,37.62
2022-07-25T19:12:01.092Z,37.71
2022-07-25T19:14:30.866Z,37.83
2022-07-25T19:17:03.046Z,38.00
2022-07-25T19:19:31.937Z,38.06
2022-07-25T19:22:00.295Z,38.23
2022-07-25T19:24:29.026Z,38.17
2022-07-25T19:26:58.865Z,38.53
2022-07-25T19:29:27.697Z,38.59
2022-07-25T19:31:56.065Z,38.81
2022-07-25T19:34:25.978Z,39.13
2022-07-25T19:36:55.635Z,39.03
2022-07-25T19:39:24.860Z,39.10
2022-07-25T19:41:53.673Z,39.30
2022-07-25T19:44:22.056Z,39.41
2022-07-25T19:46:50.456Z,39.42
2022-07-25T19:49:18.864Z,39.66
2022-07-25T19:51:48.566Z,39.59
2022-07-25T19:54:16.889Z,39.80
2022-07-25T19:56:45.308Z,39.93
2022-07-25T19:59:13.600Z,39.93
2022-07-25T20:01:42.043Z,40.16
2022-07-25T20:04:10.791Z,39.94
2022-07-25T20:06:39.624Z,40.07
2022-07-25T20:09:10.001Z,40.14
2022-07-25T20:11:40.223Z,40.34
2022-07-25T20:14:09.409Z,40.42
2022-07-25T20:16:39.589Z,40.39
2022-07-25T20:19:11.102Z,40.58
2022-07-25T20:21:40.581Z,40.94
2022-07-25T20:24:12.565Z,40.90
2022-07-25T20:26:42.338Z,40.92
2022-07-25T20:29:10.905Z,40.88
2022-07-25T20:31:41.399Z,40.95
2022-07-25T20:34:09.721Z,40.96
2022-07-25T20:36:38.078Z,41.06
2022-07-25T20:39:07.147Z,40.96
2022-07-25T20:41:37.684Z,41.38
2022-07-25T20:44:07.704Z,41.08
2022-07-25T20:46:36.689Z,41.46
2022-07-25T20:49:05.608Z,41.50
2022-07-25T20:51:34.776Z,41.36
2022-07-25T20:54:03.164Z,41.49
2022-07-25T20:56:31.559Z,41.24
2022-07-25T20:59:01.408Z,41.32
2022-07-25T21:01:30.011Z,41.83
2022-07-25T21:03:58.622Z,41.83
2022-07-25T21:06:27.539Z,41.85
2022-07-25T21:08:56.411Z,42.00
2022-07-25T21:11:25.229Z,42.03
2022-07-25T21:13:53.629Z,42.01
2022-07-25T21:16:23.499Z,42.49
2022-07-25T21:18:51.838Z,42.38
2022-07-25T21:21:20.163Z,42.41
2022-07-25T21:23:48.569Z,42.42
2022-07-25T21:26:17.028Z,42.55
2022-07-25T21:28:45.932Z,42.67
2022-07-25T21:31:14.541Z,43.31
2022-07-25T21:33:44.216Z,42.96
2022-07-25T21:36:12.776Z,42.98
2022-07-25T21:38:41.148Z,43.18
2022-07-25T21:41:09.757Z,43.05
2022-07-25T21:43:38.105Z,43.58
2022-07-25T21:46:07.120Z,43.67
2022-07-25T21:48:54.326Z,43.43
2022-07-25T21:51:24.509Z,43.52
2022-07-25T21:53:53.871Z,43.69
2022-07-25T21:56:22.415Z,44.06
2022-07-25T21:58:50.785Z,43.84
2022-07-25T22:01:21.448Z,44.06
2022-07-25T22:03:49.997Z,44.47
2022-07-25T22:06:19.214Z,44.11
2022-07-25T22:08:49.088Z,44.66
2022-07-25T22:11:38.326Z,44.56
2022-07-25T22:14:06.031Z,44.62
2022-07-25T22:16:34.376Z,45.06
2022-07-25T22:19:03.268Z,45.03
2022-07-25T22:21:31.661Z,45.13
2022-07-25T22:24:01.413Z,45.26
2022-07-25T22:26:29.963Z,45.36
2022-07-25T22:28:58.396Z,45.98
2022-07-25T22:31:26.773Z,45.97
2022-07-25T22:33:55.147Z,46.37
2022-07-25T22:36:23.554Z,46.34
2022-07-25T22:38:51.873Z,46.76
2022-07-25T22:41:21.529Z,46.91
2022-07-25T22:43:57.434Z,46.57
2022-07-25T22:46:28.872Z,46.54
2022-07-25T22:48:57.490Z,46.78
2022-07-25T22:51:27.394Z,46.81
2022-07-25T22:53:56.165Z,46.84
2022-07-25T22:56:26.206Z,46.67
2022-07-25T22:58:54.753Z,46.75
2022-07-25T23:01:23.253Z,46.97
2022-07-25T23:03:51.683Z,46.61
2022-07-25T23:06:21.460Z,46.85
2022-07-25T23:08:50.280Z,46.82
2022-07-25T23:11:19.631Z,46.70
2022-07-25T23:13:49.377Z,46.76
2022-07-25T23:16:17.737Z,46.87
2022-07-25T23:18:46.101Z,46.90
2022-07-25T23:21:14.501Z,46.92
2022-07-25T23:23:42.982Z,47.12
2022-07-25T23:26:11.768Z,47.25
2022-07-25T23:28:40.159Z,47.05
2022-07-25T23:31:09.867Z,47.59
2022-07-25T23:33:38.342Z,47.72
2022-07-25T23:36:07.437Z,47.35
2022-07-25T23:38:35.823Z,47.91
2022-07-25T23:41:04.516Z,47.85
2022-07-25T23:43:57.128Z,47.83
2022-07-25T23:46:27.544Z,48.20
2022-07-25T23:48:56.539Z,48.41
2022-07-25T23:51:24.968Z,48.71
2022-07-25T23:53:53.591Z,48.92
2022-07-25T23:56:22.002Z,48.85
2022-07-25T23:58:51.057Z,49.04
